Time;durP1;ratioP1;P1;durP2;ratioP2;P2;SDS_P1;SDS_P2;PMS_P1;PMS_P2;Temp;Humidity;BMP_temperature;BMP_pressure;BME280_temperature;BME280_humidity;BME280_pressure;Samples;Min_cycle;Max_cycle;Signal;HPM_P1;HPM_P2
2023/11/15 00:02:08;;;;;;;14.87;3.97;;;;;9.80;100499.00;;;;10317387;28;21101;-74
2023/11/15 00:07:09;;;;;;;13.90;3.30;;;;;9.90;100503.00;;;;10305765;28;20296;-74
2023/11/15 00:12:10;;;;;;;20.53;3.87;;;;;9.90;100499.00;;;;10323331;28;20878;-72
2023/11/15 00:17:11;;;;;;;14.37;2.77;;;;;9.90;100515.00;;;;10316615;28;20319;-73
2023/11/15 00:22:14;;;;;;;15.30;3.67;;;;;9.90;100518.00;;;;10314336;28;20223;-73
2023/11/15 00:27:15;;;;;;;15.83;3.40;;;;;9.90;100529.00;;;;10316593;28;20231;-73
2023/11/15 00:32:19;;;;;;;14.90;2.83;;;;;9.80;100530.00;;;;10317514;28;20704;-74
2023/11/15 00:37:20;;;;;;;15.53;3.57;;;;;9.80;100541.00;;;;10320575;28;20236;-73
2023/11/15 00:42:21;;;;;;;17.13;3.73;;;;;9.80;100548.00;;;;10323974;28;20228;-74
2023/11/15 00:47:22;;;;;;;17.07;3.40;;;;;9.70;100555.00;;;;10326292;28;20710;-73
2023/11/15 00:52:24;;;;;;;20.97;3.47;;;;;9.70;100561.00;;;;10304286;28;20355;-73
2023/11/15 00:57:25;;;;;;;12.83;3.70;;;;;9.70;100568.00;;;;10312639;28;20796;-73
2023/11/15 01:02:27;;;;;;;17.83;2.73;;;;;9.70;100587.00;;;;10307777;28;20216;-74
2023/11/15 01:07:28;;;;;;;18.43;3.13;;;;;9.60;100591.00;;;;10291536;28;20240;-74
2023/11/15 01:12:29;;;;;;;15.73;3.33;;;;;9.50;100587.00;;;;10335814;28;20949;-73
2023/11/15 01:17:34;;;;;;;19.10;3.07;;;;;9.50;100600.00;;;;10316475;28;20342;-73
2023/11/15 01:22:35;;;;;;;20.07;3.20;;;;;9.50;100621.00;;;;10331319;28;20228;-73
2023/11/15 01:27:36;;;;;;;15.87;3.80;;;;;9.60;100623.00;;;;10323844;28;20238;-73
2023/11/15 01:32:37;;;;;;;15.50;3.93;;;;;9.60;100627.00;;;;10318469;28;20296;-73
2023/11/15 01:37:39;;;;;;;18.13;3.97;;;;;9.60;100640.00;;;;10323786;28;20847;-73
2023/11/15 01:42:40;;;;;;;17.80;4.13;;;;;9.70;100644.00;;;;10310973;28;20262;-73
2023/11/15 01:47:42;;;;;;;18.13;4.00;;;;;9.70;100646.00;;;;10301563;28;20302;-73
2023/11/15 01:52:45;;;;;;;18.53;4.10;;;;;9.70;100657.00;;;;10318177;28;20227;-73
2023/11/15 01:57:48;;;;;;;19.93;5.03;;;;;9.70;100664.00;;;;10318874;28;20228;-74
2023/11/15 02:02:49;;;;;;;24.40;4.80;;;;;9.70;100668.00;;;;10273519;28;20626;-73
2023/11/15 02:07:51;;;;;;;25.67;4.90;;;;;9.70;100671.00;;;;10312207;28;20226;-76
2023/11/15 02:12:53;;;;;;;32.03;4.73;;;;;9.70;100683.00;;;;10311530;28;20304;-77
2023/11/15 02:17:54;;;;;;;23.60;4.70;;;;;9.70;100684.00;;;;10292775;28;20231;-76
2023/11/15 02:22:56;;;;;;;10.70;4.80;;;;;9.70;100694.00;;;;10311727;28;20274;-77
2023/11/15 02:28:00;;;;;;;18.70;4.37;;;;;9.70;100700.00;;;;10328751;28;20231;-77
2023/11/15 02:33:01;;;;;;;24.37;4.70;;;;;9.70;100697.00;;;;10302568;28;20759;-76
2023/11/15 02:38:02;;;;;;;20.13;5.03;;;;;9.80;100705.00;;;;10313169;28;20226;-76
2023/11/15 02:43:05;;;;;;;22.50;4.40;;;;;9.80;100714.00;;;;10330657;28;20227;-77
2023/11/15 02:48:06;;;;;;;22.13;4.70;;;;;9.90;100706.00;;;;10317747;28;20236;-76
2023/11/15 02:53:08;;;;;;;19.50;3.27;;;;;9.90;100710.00;;;;10312594;28;20232;-76
2023/11/15 02:58:09;;;;;;;22.90;3.97;;;;;9.90;100712.00;;;;10317098;28;20227;-76
2023/11/15 03:03:12;;;;;;;21.27;4.10;;;;;9.80;100714.00;;;;10317785;28;20645;-76
2023/11/15 03:08:16;;;;;;;21.40;4.67;;;;;9.80;100710.00;;;;10315401;28;20227;-76
2023/11/15 03:13:18;;;;;;;16.90;3.90;;;;;9.80;100713.00;;;;10315745;28;20274;-77
2023/11/15 03:18:20;;;;;;;21.83;3.60;;;;;9.70;100719.00;;;;10324114;28;20577;-76
2023/11/15 03:23:21;;;;;;;18.93;3.70;;;;;9.70;100725.00;;;;10317478;28;20228;-76
2023/11/15 03:28:22;;;;;;;23.50;4.03;;;;;9.70;100732.00;;;;10299899;28;20339;-76
2023/11/15 03:33:24;;;;;;;26.53;4.40;;;;;9.70;100734.00;;;;10311456;28;20216;-76
2023/11/15 03:38:25;;;;;;;24.37;4.37;;;;;9.70;100739.00;;;;10330686;28;20266;-77
2023/11/15 03:43:26;;;;;;;28.10;4.63;;;;;9.70;100738.00;;;;10309966;28;20228;-76
2023/11/15 03:48:28;;;;;;;21.83;3.90;;;;;9.60;100744.00;;;;10314604;28;20837;-76
2023/11/15 03:53:30;;;;;;;17.83;3.43;;;;;9.60;100749.00;;;;10306850;28;20230;-76
2023/11/15 03:58:31;;;;;;;17.67;3.67;;;;;9.60;100753.00;;;;10315463;28;20220;-76
2023/11/15 04:03:32;;;;;;;22.13;4.10;;;;;9.50;100757.00;;;;10329449;28;20224;-76
2023/11/15 04:08:34;;;;;;;30.37;4.30;;;;;9.50;100758.00;;;;10272727;28;20220;-76
2023/11/15 04:13:36;;;;;;;20.13;3.83;;;;;9.40;100776.00;;;;10328231;28;20227;-76
2023/11/15 04:18:38;;;;;;;21.27;3.70;;;;;9.30;100764.00;;;;10333904;28;20834;-77
2023/11/15 04:23:44;;;;;;;16.40;3.53;;;;;9.20;100778.00;;;;10317584;28;20243;-73
2023/11/15 04:28:46;;;;;;;16.90;3.60;;;;;9.10;100784.00;;;;10298993;28;20824;-73
2023/11/15 04:33:47;;;;;;;21.83;4.13;;;;;9.00;100790.00;;;;10313848;28;20311;-74
2023/11/15 04:38:48;;;;;;;13.40;3.43;;;;;8.90;100791.00;;;;10320353;28;20326;-73
2023/11/15 04:43:50;;;;;;;21.17;3.17;;;;;8.90;100798.00;;;;10310769;28;20321;-74
2023/11/15 04:48:51;;;;;;;27.33;3.67;;;;;8.90;100799.00;;;;10307862;28;20307;-73
2023/11/15 04:53:53;;;;;;;22.53;3.47;;;;;8.90;100805.00;;;;10312106;28;20648;-73
2023/11/15 04:58:54;;;;;;;18.13;3.70;;;;;8.90;100815.00;;;;10311674;28;20228;-73
2023/11/15 05:03:55;;;;;;;21.03;3.80;;;;;8.90;100810.00;;;;10302696;28;20314;-73
2023/11/15 05:08:59;;;;;;;13.10;3.20;;;;;8.90;100817.00;;;;10312127;28;20239;-73
2023/11/15 05:14:00;;;;;;;19.33;3.47;;;;;8.80;100820.00;;;;10309832;28;20282;-73
2023/11/15 05:19:01;;;;;;;18.73;4.10;;;;;8.80;100821.00;;;;10312178;28;20253;-73
2023/11/15 05:24:03;;;;;;;19.70;4.30;;;;;8.80;100836.00;;;;10302458;28;20250;-74
2023/11/15 05:29:05;;;;;;;19.00;3.97;;;;;9.00;100843.00;;;;10314795;28;20243;-73
2023/11/15 05:34:06;;;;;;;21.27;4.10;;;;;9.00;100838.00;;;;10309043;28;20803;-81
2023/11/15 05:39:09;;;;;;;24.53;4.47;;;;;9.20;100844.00;;;;10311950;28;20222;-81
2023/11/15 05:44:10;;;;;;;19.47;4.30;;;;;9.30;100834.00;;;;10312722;28;20325;-82
2023/11/15 05:49:12;;;;;;;17.73;3.97;;;;;9.30;100825.00;;;;10290633;28;20251;-81
2023/11/15 05:54:13;;;;;;;14.17;3.27;;;;;9.30;100838.00;;;;10311971;28;20233;-81
2023/11/15 05:59:14;;;;;;;25.23;3.93;;;;;9.40;100846.00;;;;10314835;28;20277;-82
2023/11/15 06:04:15;;;;;;;24.23;3.87;;;;;9.40;100848.00;;;;10328369;28;20228;-82
2023/11/15 06:09:17;;;;;;;17.47;4.10;;;;;9.40;100855.00;;;;10316942;28;20227;-81
2023/11/15 06:14:18;;;;;;;32.67;13.27;;;;;9.50;100866.00;;;;10292769;28;20271;-80
2023/11/15 06:19:21;;;;;;;30.27;8.73;;;;;9.40;100864.00;;;;10313481;28;20220;-82
2023/11/15 06:24:22;;;;;;;27.50;6.27;;;;;9.30;100868.00;;;;10326494;28;21441;-81
2023/11/15 06:29:23;;;;;;;20.93;5.07;;;;;9.20;100860.00;;;;10314451;28;20208;-82
2023/11/15 06:34:24;;;;;;;22.07;7.17;;;;;9.10;100878.00;;;;10323822;28;20259;-81
2023/11/15 06:39:26;;;;;;;21.90;5.10;;;;;9.10;100887.00;;;;10318403;28;20216;-81
2023/11/15 06:44:27;;;;;;;16.03;4.17;;;;;9.00;100889.00;;;;10312174;28;20319;-73
2023/11/15 06:49:28;;;;;;;21.23;4.70;;;;;9.00;100901.00;;;;10320651;28;20215;-73
2023/11/15 06:54:30;;;;;;;27.10;5.00;;;;;9.00;100907.00;;;;10315826;28;20230;-73
2023/11/15 06:59:32;;;;;;;16.50;3.17;;;;;8.90;100920.00;;;;10325251;28;20316;-73
2023/11/15 07:04:33;;;;;;;18.67;3.90;;;;;9.00;100911.00;;;;10317694;28;20235;-73
2023/11/15 07:09:34;;;;;;;27.30;6.20;;;;;9.00;100929.00;;;;10311971;28;20217;-73
2023/11/15 07:14:36;;;;;;;25.17;8.53;;;;;9.00;100924.00;;;;10320080;28;20274;-73
2023/11/15 07:19:38;;;;;;;20.83;7.83;;;;;8.90;100924.00;;;;10318278;28;20335;-73
2023/11/15 07:24:41;;;;;;;24.70;5.13;;;;;8.90;100935.00;;;;10324783;28;20974;-73
2023/11/15 07:29:45;;;;;;;24.60;4.30;;;;;9.00;100937.00;;;;10309507;28;20224;-73
2023/11/15 07:34:46;;;;;;;19.57;3.43;;;;;9.00;100938.00;;;;10341857;28;20277;-73
2023/11/15 07:39:47;;;;;;;18.77;4.20;;;;;9.00;100944.00;;;;10317935;28;20239;-73
2023/11/15 07:44:50;;;;;;;29.07;5.00;;;;;9.10;100948.00;;;;10311465;28;20228;-73
2023/11/15 07:49:51;;;;;;;22.83;3.87;;;;;9.30;100943.00;;;;10316933;28;20227;-73
2023/11/15 07:54:52;;;;;;;29.30;4.03;;;;;9.50;100947.00;;;;10310140;28;20669;-77
2023/11/15 07:59:53;;;;;;;20.13;4.30;;;;;9.60;100954.00;;;;10311273;28;20625;-76
2023/11/15 08:04:54;;;;;;;24.00;4.80;;;;;9.60;100958.00;;;;10296406;28;20228;-77
2023/11/15 08:09:56;;;;;;;25.23;6.63;;;;;9.70;100955.00;;;;10314029;28;20235;-76
2023/11/15 08:14:57;;;;;;;22.57;5.47;;;;;9.80;100978.00;;;;10312171;28;20931;-76
2023/11/15 08:19:58;;;;;;;21.37;4.23;;;;;10.00;100969.00;;;;10295287;28;20231;-76
2023/11/15 08:24:59;;;;;;;19.93;5.93;;;;;10.10;100979.00;;;;10314360;28;20785;-76
2023/11/15 08:30:05;;;;;;;23.93;5.37;;;;;10.30;100982.00;;;;10309724;28;20307;-76
2023/11/15 08:35:06;;;;;;;19.90;4.87;;;;;10.60;100993.00;;;;10314731;28;20217;-77
2023/11/15 08:40:11;;;;;;;19.10;5.17;;;;;10.90;100985.00;;;;10298507;28;20219;-77
2023/11/15 08:45:29;;;;;;;19.70;4.07;;;;;10.90;100985.00;;;;10304747;28;20235;-77
2023/11/15 08:50:30;;;;;;;19.02;4.22;;;;;11.30;100995.00;;;;10315580;28;20234;-76
2023/11/15 08:55:32;;;;;;;13.70;3.38;;;;;11.90;100999.00;;;;10317527;28;20303;-76
2023/11/15 09:00:36;;;;;;;11.48;3.83;;;;;11.70;101011.00;;;;10291231;28;20242;-76
2023/11/15 09:05:39;;;;;;;20.02;4.07;;;;;11.50;101012.00;;;;10316703;28;20234;-81
2023/11/15 09:10:40;;;;;;;19.70;4.27;;;;;11.50;101026.00;;;;10310674;28;20228;-81
2023/11/15 09:15:41;;;;;;;23.52;6.15;;;;;11.60;101031.00;;;;10291661;28;20248;-81
2023/11/15 09:20:43;;;;;;;17.67;4.10;;;;;11.50;101018.00;;;;10308395;28;20234;-82
2023/11/15 09:25:46;;;;;;;12.63;3.95;;;;;11.50;101025.00;;;;10331051;28;20224;-81
2023/11/15 09:30:48;;;;;;;13.00;3.47;;;;;11.60;101029.00;;;;10276920;28;20289;-80
2023/11/15 09:35:49;;;;;;;18.63;3.65;;;;;12.00;101022.00;;;;10306430;28;20935;-83
2023/11/15 09:41:06;;;;;;;17.48;3.05;;;;;11.90;101027.00;;;;10329192;28;20263;-82
2023/11/15 09:46:10;;;;;;;20.25;3.63;;;;;11.90;101028.00;;;;10317226;28;20243;-81
2023/11/15 09:51:14;;;;;;;14.97;3.83;;;;;12.00;101035.00;;;;10311233;28;20555;-81
2023/11/15 09:56:15;;;;;;;15.80;3.40;;;;;11.60;101039.00;;;;10309076;28;20273;-81
2023/11/15 10:01:21;;;;;;;13.20;3.38;;;;;11.60;101044.00;;;;10322389;28;20591;-81
2023/11/15 10:06:24;;;;;;;13.80;3.27;;;;;11.50;101037.00;;;;10319733;28;20228;-81
2023/11/15 10:11:26;;;;;;;13.33;4.10;;;;;11.30;101041.00;;;;10323070;28;20230;-81
2023/11/15 10:16:30;;;;;;;11.82;3.95;;;;;11.90;101041.00;;;;10339327;28;20219;-73
2023/11/15 10:21:33;;;;;;;12.35;4.05;;;;;12.70;101029.00;;;;10318671;28;20222;-73
2023/11/15 10:26:38;;;;;;;17.77;4.10;;;;;13.60;101040.00;;;;10317008;28;20676;-73
2023/11/15 10:32:00;;;;;;;11.20;3.22;;;;;13.80;101046.00;;;;10313770;28;20282;-73
2023/11/15 10:37:10;;;;;;;16.48;3.40;;;;;13.70;101048.00;;;;10318904;28;20222;-73
2023/11/15 10:42:12;;;;;;;15.35;5.22;;;;;13.50;101056.00;;;;10314307;28;20318;-73
2023/11/15 10:47:22;;;;;;;11.98;3.55;;;;;13.50;101055.00;;;;10298539;28;20303;-73
2023/11/15 10:52:26;;;;;;;5.47;1.98;;;;;13.30;101062.00;;;;10335025;28;20224;-73
2023/11/15 10:57:31;;;;;;;11.40;2.20;;;;;13.00;101081.00;;;;10310394;28;20626;-73
2023/11/15 11:02:33;;;;;;;13.10;2.95;;;;;13.10;101077.00;;;;10330394;28;20224;-73
2023/11/15 11:07:44;;;;;;;9.30;2.78;;;;;13.00;101074.00;;;;10319844;28;20240;-73
2023/11/15 11:12:46;;;;;;;12.73;3.33;;;;;13.70;101062.00;;;;10306688;28;20290;-73
2023/11/15 11:17:48;;;;;;;7.25;2.38;;;;;13.90;101073.00;;;;10318569;28;20222;-73
2023/11/15 11:23:26;;;;;;;10.70;2.28;;;;;13.70;101063.00;;;;10316408;28;20247;-73
2023/11/15 11:29:03;;;;;;;10.98;2.53;;;;;13.30;101057.00;;;;10260504;28;20554;-75
2023/11/15 11:34:10;;;;;;;6.65;2.03;;;;;13.40;101057.00;;;;10309221;28;20228;-75
2023/11/15 11:39:12;;;;;;;16.83;4.05;;;;;13.50;101055.00;;;;10315566;28;20231;-75
2023/11/15 11:44:15;;;;;;;15.10;5.38;;;;;13.90;101044.00;;;;10316446;28;20320;-74
2023/11/15 11:49:16;;;;;;;13.07;5.43;;;;;14.70;101056.00;;;;10317437;28;20601;-75
2023/11/15 11:54:23;;;;;;;8.93;2.88;;;;;15.30;101062.00;;;;10322019;28;20227;-75
2023/11/15 11:59:28;;;;;;;11.27;3.88;;;;;15.00;101056.00;;;;10318032;28;20362;-75
2023/11/15 12:04:29;;;;;;;10.95;2.63;;;;;14.70;101069.00;;;;10320933;28;20319;-75
2023/11/15 12:09:31;;;;;;;12.55;2.45;;;;;14.10;101060.00;;;;10322357;28;20228;-75
2023/11/15 12:14:32;;;;;;;8.40;2.08;;;;;14.40;101050.00;;;;10320221;28;20228;-75
2023/11/15 12:19:42;;;;;;;8.88;1.88;;;;;15.40;101060.00;;;;10318372;28;20216;-75
2023/11/15 12:24:45;;;;;;;7.20;1.70;;;;;14.70;101054.00;;;;10314264;28;20788;-75
2023/11/15 12:29:46;;;;;;;7.10;1.75;;;;;14.90;101047.00;;;;10321139;28;20909;-75
2023/11/15 12:34:48;;;;;;;7.63;1.88;;;;;14.20;101066.00;;;;10311515;28;20847;-82
2023/11/15 12:39:50;;;;;;;7.55;3.05;;;;;13.60;101054.00;;;;10320121;28;20303;-82
2023/11/15 12:44:51;;;;;;;9.30;2.92;;;;;13.70;101060.00;;;;10311761;28;20259;-79
2023/11/15 12:49:52;;;;;;;9.05;2.00;;;;;13.50;101068.00;;;;10327167;28;20220;-80
2023/11/15 12:54:54;;;;;;;10.73;2.50;;;;;12.70;101067.00;;;;10319355;28;20709;-81
2023/11/15 12:59:56;;;;;;;9.80;3.22;;;;;12.20;101066.00;;;;10317235;28;20235;-81
2023/11/15 13:05:03;;;;;;;8.98;2.50;;;;;12.00;101074.00;;;;10317866;28;20223;-82
2023/11/15 13:10:04;;;;;;;8.25;2.42;;;;;12.70;101066.00;;;;10308214;28;20306;-79
2023/11/15 13:15:11;;;;;;;9.15;2.20;;;;;13.10;101069.00;;;;10312203;28;20670;-83
2023/11/15 13:20:15;;;;;;;5.88;2.50;;;;;13.50;101077.00;;;;10316858;28;20903;-81
2023/11/15 13:25:16;;;;;;;8.13;1.90;;;;;13.70;101077.00;;;;10325941;28;20216;-80
2023/11/15 13:30:19;;;;;;;8.18;2.47;;;;;13.20;101067.00;;;;10314915;28;20224;-82
2023/11/15 13:35:21;;;;;;;6.68;1.98;;;;;13.30;101064.00;;;;10302041;28;20910;-81
2023/11/15 13:40:23;;;;;;;6.20;1.42;;;;;13.40;101065.00;;;;10311459;28;20232;-81
2023/11/15 13:45:27;;;;;;;5.40;1.38;;;;;13.70;101086.00;;;;10308476;28;20224;-73
2023/11/15 13:50:28;;;;;;;10.10;1.90;;;;;13.50;101085.00;;;;10309575;28;20231;-75
2023/11/15 13:55:29;;;;;;;6.38;1.20;;;;;13.40;101101.00;;;;10341153;28;20657;-75
2023/11/15 14:00:33;;;;;;;5.63;1.42;;;;;13.20;101093.00;;;;10321710;28;20220;-75
2023/11/15 14:05:35;;;;;;;4.32;1.20;;;;;13.10;101101.00;;;;10303549;28;20216;-74
2023/11/15 14:10:40;;;;;;;5.22;1.63;;;;;13.40;101096.00;;;;10303052;28;20224;-75
2023/11/15 14:15:43;;;;;;;11.00;1.95;;;;;14.90;101108.00;;;;10311532;28;20253;-75
2023/11/15 14:20:44;;;;;;;9.00;1.58;;;;;13.20;101116.00;;;;10310010;28;20223;-75
2023/11/15 14:25:45;;;;;;;5.63;1.30;;;;;12.60;101112.00;;;;10302573;28;20312;-74
2023/11/15 14:30:47;;;;;;;4.35;1.20;;;;;12.40;101105.00;;;;10316308;28;20263;-75
2023/11/15 14:35:48;;;;;;;5.32;1.55;;;;;12.20;101105.00;;;;10321880;28;20310;-75
2023/11/15 14:40:50;;;;;;;9.43;2.25;;;;;11.90;101107.00;;;;10307970;28;20223;-75
2023/11/15 14:45:51;;;;;;;7.57;1.60;;;;;11.60;101108.00;;;;10312545;28;20301;-74
2023/11/15 14:50:52;;;;;;;6.22;1.40;;;;;11.30;101105.00;;;;10323340;28;20261;-74
2023/11/15 14:55:53;;;;;;;5.93;1.63;;;;;11.20;101117.00;;;;10322900;28;20243;-76
2023/11/15 15:00:55;;;;;;;8.83;1.90;;;;;11.00;101117.00;;;;10313605;28;20649;-75
2023/11/15 15:05:56;;;;;;;7.63;1.73;;;;;10.80;101112.00;;;;10315418;28;20728;-75
2023/11/15 15:10:57;;;;;;;7.43;1.40;;;;;10.70;101110.00;;;;10321119;28;20235;-76
2023/11/15 15:15:58;;;;;;;11.27;1.70;;;;;10.50;101108.00;;;;10318205;28;20258;-76
2023/11/15 15:21:01;;;;;;;6.97;1.60;;;;;10.50;101107.00;;;;10296682;28;20246;-76
2023/11/15 15:26:03;;;;;;;12.07;1.90;;;;;10.40;101117.00;;;;10315682;28;20236;-75
2023/11/15 15:31:06;;;;;;;8.27;2.83;;;;;10.30;101117.00;;;;10304436;28;20235;-76
2023/11/15 15:36:09;;;;;;;8.27;1.80;;;;;10.30;101120.00;;;;10321018;28;20602;-75
2023/11/15 15:41:10;;;;;;;10.97;2.57;;;;;10.10;101129.00;;;;10316810;28;20753;-76
2023/11/15 15:46:13;;;;;;;9.70;2.13;;;;;10.00;101132.00;;;;10330960;28;20322;-76
2023/11/15 15:51:14;;;;;;;6.43;2.00;;;;;10.00;101141.00;;;;10318188;28;20871;-76
2023/11/15 15:56:16;;;;;;;6.30;2.73;;;;;9.90;101144.00;;;;10311615;28;20220;-75
2023/11/15 16:01:17;;;;;;;6.90;2.27;;;;;9.90;101142.00;;;;10326671;28;20727;-76
2023/11/15 16:06:24;;;;;;;6.27;1.67;;;;;9.80;101146.00;;;;10305596;28;20238;-73
2023/11/15 16:11:26;;;;;;;7.47;1.40;;;;;9.70;101156.00;;;;10314505;28;20662;-73
2023/11/15 16:16:27;;;;;;;5.47;1.90;;;;;9.60;101168.00;;;;10311561;28;20224;-73
2023/11/15 16:21:28;;;;;;;6.63;2.30;;;;;9.40;101171.00;;;;10307067;28;20228;-73
2023/11/15 16:26:29;;;;;;;5.57;2.40;;;;;9.30;101175.00;;;;10325017;28;20336;-72
2023/11/15 16:31:30;;;;;;;10.57;4.57;;;;;9.20;101184.00;;;;10317157;28;20303;-73
2023/11/15 16:36:33;;;;;;;10.27;2.90;;;;;9.10;101175.00;;;;10326145;28;20224;-73
2023/11/15 16:41:54;;;;;;;9.03;3.13;;;;;9.10;101189.00;;;;10314210;28;20243;-73
2023/11/15 16:46:55;;;;;;;13.97;3.27;;;;;9.00;101190.00;;;;10313833;28;20887;-73
2023/11/15 16:51:59;;;;;;;10.07;2.50;;;;;9.00;101195.00;;;;10311167;28;20220;-73
2023/11/15 16:57:04;;;;;;;9.10;2.50;;;;;9.00;101202.00;;;;10316882;28;20261;-73
2023/11/15 17:02:06;;;;;;;10.90;2.17;;;;;9.00;101214.00;;;;10302520;28;20262;-72
2023/11/15 17:07:07;;;;;;;8.70;2.03;;;;;8.90;101215.00;;;;10306920;28;20242;-72
2023/11/15 17:12:09;;;;;;;12.60;3.60;;;;;8.90;101213.00;;;;10307236;28;20314;-72
2023/11/15 17:17:10;;;;;;;13.50;4.30;;;;;8.90;101212.00;;;;10298838;28;20208;-73
2023/11/15 17:22:13;;;;;;;8.07;3.23;;;;;8.80;101222.00;;;;10317061;28;20238;-73
2023/11/15 17:27:14;;;;;;;19.70;7.50;;;;;8.60;101225.00;;;;10292032;28;20234;-73
2023/11/15 17:32:15;;;;;;;15.63;6.80;;;;;8.50;101232.00;;;;10308629;28;20247;-73
2023/11/15 17:37:16;;;;;;;12.97;4.33;;;;;8.30;101233.00;;;;10313232;28;20234;-73
2023/11/15 17:42:17;;;;;;;17.17;8.50;;;;;8.20;101218.00;;;;10315618;28;20224;-73
2023/11/15 17:47:23;;;;;;;16.97;6.23;;;;;8.20;101223.00;;;;10312711;28;20239;-73
2023/11/15 17:52:27;;;;;;;14.80;5.80;;;;;8.30;101230.00;;;;10314233;28;20235;-73
2023/11/15 17:57:33;;;;;;;12.57;4.70;;;;;8.20;101226.00;;;;10312535;28;20832;-73
2023/11/15 18:02:35;;;;;;;12.17;3.50;;;;;8.00;101222.00;;;;10306037;28;20295;-73
2023/11/15 18:07:36;;;;;;;15.63;4.33;;;;;7.90;101218.00;;;;10320772;28;20259;-73
2023/11/15 18:12:37;;;;;;;22.27;9.83;;;;;7.90;101222.00;;;;10303152;28;20314;-73
2023/11/15 18:17:38;;;;;;;13.07;4.93;;;;;8.00;101227.00;;;;10310302;28;20257;-73
2023/11/15 18:22:40;;;;;;;7.67;3.10;;;;;8.00;101221.00;;;;10307036;28;20258;-73
2023/11/15 18:27:45;;;;;;;18.63;3.33;;;;;8.00;101233.00;;;;10327678;28;20236;-73
2023/11/15 18:32:47;;;;;;;9.40;3.53;;;;;8.00;101227.00;;;;10314589;28;20314;-72
2023/11/15 18:37:49;;;;;;;14.97;3.50;;;;;7.90;101240.00;;;;10315975;28;20267;-72
2023/11/15 18:42:59;;;;;;;13.53;3.50;;;;;7.80;101229.00;;;;10321532;28;20224;-73
2023/11/15 18:48:00;;;;;;;9.77;3.50;;;;;7.70;101226.00;;;;10317781;28;20289;-72
2023/11/15 18:53:02;;;;;;;13.43;3.57;;;;;7.70;101233.00;;;;10315063;28;20220;-73
2023/11/15 18:58:08;;;;;;;15.93;3.67;;;;;7.70;101237.00;;;;10314928;28;20227;-73
2023/11/15 19:03:11;;;;;;;12.97;4.93;;;;;7.70;101240.00;;;;10311099;28;20228;-73
2023/11/15 19:08:14;;;;;;;11.93;3.67;;;;;7.60;101248.00;;;;10312741;28;20659;-73
2023/11/15 19:13:16;;;;;;;10.23;3.70;;;;;7.60;101249.00;;;;10312462;28;20220;-72
2023/11/15 19:18:19;;;;;;;16.17;4.73;;;;;7.60;101244.00;;;;10316992;28;20263;-73
2023/11/15 19:23:22;;;;;;;16.70;3.60;;;;;7.60;101251.00;;;;10312074;28;20282;-73
2023/11/15 19:28:23;;;;;;;11.23;4.13;;;;;7.60;101243.00;;;;10318162;28;20271;-73
2023/11/15 19:33:24;;;;;;;14.87;3.70;;;;;7.70;101250.00;;;;10314372;28;20255;-73
2023/11/15 19:38:25;;;;;;;15.97;4.37;;;;;7.60;101246.00;;;;10314569;28;20270;-75
2023/11/15 19:43:26;;;;;;;9.83;4.00;;;;;7.60;101247.00;;;;10318682;28;20299;-75
2023/11/15 19:48:27;;;;;;;10.00;3.63;;;;;7.60;101249.00;;;;10331763;28;20310;-76
2023/11/15 19:53:29;;;;;;;16.00;4.70;;;;;7.60;101243.00;;;;10319354;28;20308;-76
2023/11/15 19:58:31;;;;;;;11.40;3.73;;;;;7.50;101248.00;;;;10320811;28;20307;-76
2023/11/15 20:03:33;;;;;;;18.93;4.60;;;;;7.50;101240.00;;;;10318926;28;20231;-76
2023/11/15 20:08:35;;;;;;;15.23;3.93;;;;;7.40;101249.00;;;;10311058;28;20226;-75
2023/11/15 20:13:40;;;;;;;9.13;3.33;;;;;7.40;101237.00;;;;10317706;28;20295;-76
2023/11/15 20:18:42;;;;;;;17.00;3.60;;;;;7.40;101242.00;;;;10314192;28;20248;-76
2023/11/15 20:23:43;;;;;;;15.33;3.77;;;;;7.40;101239.00;;;;10320089;28;20236;-76
2023/11/15 20:28:44;;;;;;;14.60;3.53;;;;;7.30;101235.00;;;;10306472;28;20314;-75
2023/11/15 20:33:45;;;;;;;20.27;4.70;;;;;7.30;101238.00;;;;10311001;28;20292;-75
2023/11/15 20:38:46;;;;;;;22.33;4.10;;;;;7.20;101242.00;;;;10309695;28;20228;-75
2023/11/15 20:43:47;;;;;;;15.77;4.93;;;;;7.20;101233.00;;;;10297946;28;20228;-73
2023/11/15 20:48:49;;;;;;;14.37;3.80;;;;;7.10;101232.00;;;;10309660;28;20262;-72
2023/11/15 20:53:50;;;;;;;15.67;4.40;;;;;7.00;101239.00;;;;10293111;28;20223;-73
2023/11/15 20:58:51;;;;;;;16.13;4.33;;;;;7.00;101235.00;;;;10304310;28;20792;-73
2023/11/15 21:03:52;;;;;;;14.13;4.07;;;;;6.90;101240.00;;;;10329558;28;20220;-72
2023/11/15 21:08:54;;;;;;;17.13;4.37;;;;;6.90;101235.00;;;;10330925;28;20234;-73
2023/11/15 21:13:55;;;;;;;15.87;4.33;;;;;6.80;101235.00;;;;10285042;28;20233;-72
2023/11/15 21:18:59;;;;;;;9.60;4.33;;;;;6.80;101241.00;;;;10317058;28;20224;-74
2023/11/15 21:24:01;;;;;;;20.20;5.93;;;;;6.70;101236.00;;;;10336759;28;20854;-72
2023/11/15 21:29:08;;;;;;;11.40;3.90;;;;;6.70;101222.00;;;;10312610;28;20955;-73
2023/11/15 21:34:09;;;;;;;14.77;4.30;;;;;6.70;101221.00;;;;10326727;28;20224;-72
2023/11/15 21:39:11;;;;;;;12.80;3.80;;;;;6.70;101233.00;;;;10308138;28;20228;-72
2023/11/15 21:44:16;;;;;;;13.63;4.53;;;;;6.70;101241.00;;;;10310380;28;20282;-74
2023/11/15 21:49:17;;;;;;;18.53;4.03;;;;;6.70;101241.00;;;;10314741;28;20327;-72
2023/11/15 21:54:18;;;;;;;13.40;4.17;;;;;6.70;101230.00;;;;10321375;28;20240;-72
2023/11/15 21:59:19;;;;;;;13.07;3.57;;;;;6.70;101233.00;;;;10315884;28;20230;-73
2023/11/15 22:04:21;;;;;;;15.93;4.97;;;;;6.80;101230.00;;;;10305445;28;20278;-73
2023/11/15 22:09:23;;;;;;;19.40;4.43;;;;;6.80;101235.00;;;;10318355;28;20271;-72
2023/11/15 22:14:24;;;;;;;17.23;4.83;;;;;6.80;101226.00;;;;10309084;28;20240;-71
2023/11/15 22:19:26;;;;;;;17.33;4.53;;;;;6.80;101221.00;;;;10309275;28;20223;-72
2023/11/15 22:24:27;;;;;;;15.53;4.03;;;;;6.90;101229.00;;;;10328871;28;20242;-73
2023/11/15 22:29:30;;;;;;;16.13;3.67;;;;;7.00;101233.00;;;;10291067;28;20232;-72
2023/11/15 22:34:31;;;;;;;16.87;4.43;;;;;7.00;101228.00;;;;10311163;28;20220;-72
2023/11/15 22:39:33;;;;;;;19.60;4.53;;;;;7.10;101233.00;;;;10328254;28;20281;-73
2023/11/15 22:44:34;;;;;;;12.57;5.03;;;;;7.10;101227.00;;;;10314840;28;20232;-73
2023/11/15 22:49:36;;;;;;;14.67;4.20;;;;;7.00;101231.00;;;;10323660;28;20752;-73
2023/11/15 22:54:37;;;;;;;13.63;4.27;;;;;6.90;101223.00;;;;10314535;28;20255;-72
2023/11/15 22:59:38;;;;;;;14.33;3.67;;;;;6.80;101222.00;;;;10303871;28;20621;-72
2023/11/15 23:04:41;;;;;;;10.30;4.00;;;;;6.70;101218.00;;;;10314602;28;20310;-72
2023/11/15 23:09:42;;;;;;;17.30;4.33;;;;;6.60;101218.00;;;;10304747;28;20278;-72
2023/11/15 23:14:44;;;;;;;17.17;6.43;;;;;6.60;101217.00;;;;10290265;28;20216;-73
2023/11/15 23:19:48;;;;;;;16.37;4.10;;;;;6.60;101208.00;;;;10315568;28;20232;-72
2023/11/15 23:24:51;;;;;;;14.37;3.87;;;;;6.60;101208.00;;;;10304596;28;20225;-72
2023/11/15 23:29:52;;;;;;;12.13;3.87;;;;;6.60;101206.00;;;;10307556;28;20228;-73
2023/11/15 23:34:55;;;;;;;22.50;4.90;;;;;6.70;101210.00;;;;10310805;28;20306;-72
2023/11/15 23:39:56;;;;;;;19.40;4.80;;;;;6.60;101216.00;;;;10316839;28;20216;-73
2023/11/15 23:44:57;;;;;;;12.70;3.80;;;;;6.60;101215.00;;;;10310712;28;20323;-72
2023/11/15 23:50:01;;;;;;;13.83;4.47;;;;;6.50;101219.00;;;;10317718;28;20224;-72
2023/11/15 23:55:03;;;;;;;18.03;4.73;;;;;6.50;101213.00;;;;10308991;28;20239;-72
